Big Bear Station Historical Data
Daily Summary for August 23, 2017 Units:  English    Metric   Both
« Previous Day
Next Day »
Daily Weekly Monthly Yearly Custom
  High: Low: Average:
Temperature: 80.4 °F 48.6 °F 62.5 °F
Dew Point: 52.6 °F 41.5 °F 46.9 °F
Humidity: 89 % 29 % 60 %
Wind Speed: 9.4 mph 0.0 mph 1.8 mph
Wind Gust: -999.0 mph - -
Wind:- - WSW
Pressure: 30.30 in 30.19 in -
Precipitation: 0.00 in    
Historical Graphs
 
 
Tabular Data for August 23, 2017
Time Temperature Dew Point Pressure Wind Wind Speed Wind Gust Humidity Rainfall Rate (Hourly)
00:03 54.5 °F 46.7 °F 30.30 in Calm   -999.0 mph 75 % 0 in
00:19 54.3 °F 46.5 °F 30.30 in Calm   -999.0 mph 75 % 0 in
00:34 54.0 °F 47.0 °F 30.30 in Calm   -999.0 mph 77 % 0 in
00:49 53.6 °F 46.6 °F 30.30 in Calm   -999.0 mph 77 % 0 in
01:04 53.2 °F 46.2 °F 30.29 in Calm   -999.0 mph 77 % 0 in
01:19 52.9 °F 45.5 °F 30.29 in Calm   -999.0 mph 76 % 0 in
01:35 52.9 °F 45.2 °F 30.29 in Calm   -999.0 mph 75 % 0 in
01:50 52.3 °F 45.6 °F 30.29 in Calm   -999.0 mph 78 % 0 in
02:05 51.8 °F 45.5 °F 30.29 in Calm   -999.0 mph 79 % 0 in
02:20 51.6 °F 46.0 °F 30.29 in Calm   -999.0 mph 81 % 0 in
02:35 51.4 °F 45.8 °F 30.29 in Calm   -999.0 mph 81 % 0 in
02:51 51.3 °F 45.7 °F 30.29 in Calm   -999.0 mph 81 % 0 in
03:06 51.1 °F 45.8 °F 30.28 in Calm   -999.0 mph 82 % 0 in
03:21 50.7 °F 45.1 °F 30.28 in Calm   -999.0 mph 81 % 0 in
03:36 50.4 °F 44.8 °F 30.28 in Calm   -999.0 mph 81 % 0 in
03:51 50.4 °F 45.1 °F 30.28 in Calm   -999.0 mph 82 % 0 in
04:07 50.0 °F 44.7 °F 30.27 in South 1.7 mph -999.0 mph 82 % 0 in
04:22 49.6 °F 44.6 °F 30.27 in SSW 2.2 mph -999.0 mph 83 % 0 in
04:37 49.5 °F 45.2 °F 30.27 in Calm   -999.0 mph 85 % 0 in
04:52 49.3 °F 45.0 °F 30.26 in Calm   -999.0 mph 85 % 0 in
05:08 49.1 °F 45.4 °F 30.27 in Calm   -999.0 mph 87 % 0 in
05:23 48.9 °F 44.9 °F 30.26 in Calm   -999.0 mph 86 % 0 in
05:38 48.9 °F 44.6 °F 30.26 in Calm   -999.0 mph 85 % 0 in
05:53 48.6 °F 44.6 °F 30.27 in Calm   -999.0 mph 86 % 0 in
06:08 48.6 °F 45.5 °F 30.26 in SE 1.7 mph -999.0 mph 89 % 0 in
06:24 48.7 °F 45.6 °F 30.27 in SSE 1.7 mph -999.0 mph 89 % 0 in
06:39 48.9 °F 45.8 °F 30.27 in South 1.7 mph -999.0 mph 89 % 0 in
06:54 49.1 °F 46.0 °F 30.27 in Calm   -999.0 mph 89 % 0 in
07:09 49.3 °F 46.2 °F 30.27 in Calm   -999.0 mph 89 % 0 in
07:24 50.0 °F 46.6 °F 30.27 in Calm   -999.0 mph 88 % 0 in
07:40 50.9 °F 47.2 °F 30.28 in Calm   -999.0 mph 87 % 0 in
07:55 51.4 °F 47.7 °F 30.27 in Calm   -999.0 mph 87 % 0 in
08:10 52.5 °F 48.4 °F 30.27 in Calm   -999.0 mph 86 % 0 in
08:40 56.7 °F 50.6 °F 30.27 in Calm   -999.0 mph 80 % 0 in
08:56 59.7 °F 51.8 °F 30.27 in Calm   -999.0 mph 75 % 0 in
09:11 62.8 °F 51.7 °F 30.27 in WNW 3.2 mph -999.0 mph 67 % 0 in
09:26 65.1 °F 52.6 °F 30.27 in NW 1.7 mph -999.0 mph 64 % 0 in
09:41 66.7 °F 52.4 °F 30.27 in SSE 1.7 mph -999.0 mph 60 % 0 in
09:56 68.5 °F 50.7 °F 30.27 in NW 3.2 mph -999.0 mph 53 % 0 in
10:12 70.3 °F 49.7 °F 30.27 in ENE 3.7 mph -999.0 mph 48 % 0 in
10:27 72.0 °F 48.3 °F 30.27 in East 1.7 mph -999.0 mph 43 % 0 in
10:42 74.8 °F 49.5 °F 30.27 in South 4.7 mph -999.0 mph 41 % 0 in
10:57 74.8 °F 48.2 °F 30.27 in NW 3.7 mph -999.0 mph 39 % 0 in
11:13 75.7 °F 47.6 °F 30.27 in NW 2.7 mph -999.0 mph 37 % 0 in
11:28 76.1 °F 50.0 °F 30.27 in NW 7.8 mph -999.0 mph 40 % 0 in
11:43 77.7 °F 47.9 °F 30.26 in WNW 2.7 mph -999.0 mph 35 % 0 in
11:58 80.4 °F 46.1 °F 30.25 in South 3.7 mph -999.0 mph 30 % 0 in
12:13 79.3 °F 48.5 °F 30.25 in NW 2.7 mph -999.0 mph 34 % 0 in
12:29 79.5 °F 49.5 °F 30.25 in ENE 3.7 mph -999.0 mph 35 % 0 in
12:59 79.7 °F 44.6 °F 30.24 in NNW 2.7 mph -999.0 mph 29 % 0 in
13:14 79.9 °F 49.0 °F 30.24 in NW 4.2 mph -999.0 mph 34 % 0 in
13:29 77.4 °F 49.8 °F 30.23 in NNW 1.1 mph -999.0 mph 38 % 0 in
13:45 76.8 °F 48.6 °F 30.23 in North 1.7 mph -999.0 mph 37 % 0 in
14:00 77.7 °F 50.1 °F 30.23 in WNW 3.7 mph -999.0 mph 38 % 0 in
14:15 77.7 °F 51.5 °F 30.23 in North 2.7 mph -999.0 mph 40 % 0 in
14:30 78.3 °F 51.3 °F 30.22 in WNW 5.3 mph -999.0 mph 39 % 0 in
14:46 78.3 °F 50.6 °F 30.22 in NW 4.7 mph -999.0 mph 38 % 0 in
15:01 77.2 °F 51.0 °F 30.21 in WNW 5.3 mph -999.0 mph 40 % 0 in
15:16 77.2 °F 51.7 °F 30.21 in NW 4.7 mph -999.0 mph 41 % 0 in
15:32 75.6 °F 51.5 °F 30.20 in NNE 5.8 mph -999.0 mph 43 % 0 in
15:47 75.0 °F 51.0 °F 30.21 in WSW 6.8 mph -999.0 mph 43 % 0 in
16:02 75.2 °F 51.8 °F 30.20 in NW 9.4 mph -999.0 mph 44 % 0 in
16:17 73.9 °F 50.6 °F 30.20 in West 4.2 mph -999.0 mph 44 % 0 in
16:33 75.4 °F 51.4 °F 30.20 in NW 7.8 mph -999.0 mph 43 % 0 in
16:48 72.9 °F 49.7 °F 30.20 in SW 3.7 mph -999.0 mph 44 % 0 in
17:04 75.0 °F 49.7 °F 30.20 in West 2.7 mph -999.0 mph 41 % 0 in
17:19 75.2 °F 50.5 °F 30.20 in NW 4.2 mph -999.0 mph 42 % 0 in
17:34 73.4 °F 48.9 °F 30.19 in NW 5.8 mph -999.0 mph 42 % 0 in
17:50 73.6 °F 49.1 °F 30.19 in NNW 3.7 mph -999.0 mph 42 % 0 in
18:05 72.5 °F 48.7 °F 30.19 in WNW 4.2 mph -999.0 mph 43 % 0 in
18:20 72.3 °F 48.6 °F 30.19 in NW 4.7 mph -999.0 mph 43 % 0 in
18:35 68.9 °F 46.7 °F 30.19 in WSW 1.7 mph -999.0 mph 45 % 0 in
18:51 67.1 °F 45.6 °F 30.19 in Calm   -999.0 mph 46 % 0 in
19:06 64.9 °F 44.2 °F 30.20 in NW 1.7 mph -999.0 mph 47 % 0 in
19:21 64.0 °F 43.9 °F 30.20 in WNW 1.7 mph -999.0 mph 48 % 0 in
19:36 63.1 °F 43.1 °F 30.20 in Calm   -999.0 mph 48 % 0 in
19:51 62.6 °F 42.1 °F 30.20 in Calm   -999.0 mph 47 % 0 in
20:07 62.1 °F 41.6 °F 30.20 in SE 1.1 mph -999.0 mph 47 % 0 in
20:22 61.5 °F 42.2 °F 30.20 in Calm   -999.0 mph 49 % 0 in
20:37 60.8 °F 42.0 °F 30.20 in Calm   -999.0 mph 50 % 0 in
20:52 60.4 °F 41.7 °F 30.20 in Calm   -999.0 mph 50 % 0 in
21:07 60.8 °F 41.5 °F 30.21 in SSW 1.7 mph -999.0 mph 49 % 0 in
21:23 60.1 °F 41.9 °F 30.21 in Calm   -999.0 mph 51 % 0 in
21:38 59.5 °F 41.9 °F 30.21 in Calm   -999.0 mph 52 % 0 in
21:53 58.6 °F 43.0 °F 30.21 in Calm   -999.0 mph 56 % 0 in
22:08 57.9 °F 43.7 °F 30.21 in Calm   -999.0 mph 59 % 0 in
22:24 57.0 °F 44.1 °F 30.21 in Calm   -999.0 mph 62 % 0 in
22:39 56.5 °F 44.9 °F 30.21 in Calm   -999.0 mph 65 % 0 in
22:54 55.8 °F 44.6 °F 30.21 in Calm   -999.0 mph 66 % 0 in
23:09 55.2 °F 44.4 °F 30.21 in Calm   -999.0 mph 67 % 0 in
23:24 54.5 °F 43.4 °F 30.21 in Calm   -999.0 mph 66 % 0 in
23:40 54.1 °F 43.0 °F 30.21 in Calm   -999.0 mph 66 % 0 in
23:55 53.8 °F 42.3 °F 30.21 in Calm   -999.0 mph 65 % 0 in
Big Bear CA Weather
Compliments of Weather Underground - 1.5 mb